Предлагаем Вашему вниманию английскую версию страницы: AUTOTAF.ME USMU - aviation weather forecast Novyj Urengoj

AUTOTAF USMU - авиапрогноз Новый Уренгой

Сегодня рассвет 03:05 UTC, восход солнца 04:14 UTC,
местный полдень 07:06 UTC, заход солнца 09:57 UTC,
наступление темноты 11:06 UTC.

Краткий прогноз USMU на 9 часов

AUTOTAF.ME USMU 251700Z 2521/2606 17008G14MPS CAVOK    
  BECMG 2522/2600 DRSN  
  FM260300 17009G15MPS 1500 BLSN NSC 
  BECMG 2604/2606 2000

Детальный прогноз USMU на 24 часа

AUTOTAF.ME USMU 251700Z 2521/2621 17008G14MPS 9999 OVC090 TXM33/2612Z TNM37/2521Z  
  BECMG 2522/2600 DRSN  
  FM260300 17009G15MPS 1500 BLSN SCT270 
  BECMG 2604/2606 2000  
  FM260900 17010G15MPS 9999 DRSN OVC220   
  FM261800 14003MPS 9999 FEW120 
  FM262100 VRB02MPS 1000 BR SKC

Подробный табличный прогноз

Время (UTC) miniAUTOTAF на 3 ч WX FZLVL
M AGL
ICE TURB Т
(°С)
Тd
(°С)
f(%) QNH
(гПа)
WIND/T
15 17007G12MPS 9999 OVC120 SFC -41 -46 59 1036 ...
21 17008G14MPS 9999 OVC090 SFC MOD FL50/FL70 MOD SFC/FL20 -37 -41 66 1032 ...
26.01.2021
00 17009G14MPS 9999 DRSN OVC090 DRSN SFC FBL FL40/FL50 MOD FL20/FL30 -36 -40 67 1030 ...
03 17009G15MPS 1500 BLSN SCT270 BLSN SFC MOD FL40/FL110 MOD FL20/FL30 -35 -39 67 1028 ...
06 17008G14MPS 2000 BLSN BKN260 BLSN SFC FBL FL50/FL110 MOD SFC/FL20 -34 -38 66 1025 ...
09 17010G15MPS 9999 DRSN OVC220 DRSN SFC MOD FL90/FL100 MOD SFC/FL20 -34 -38 66 1023 ...
12 16009MPS 9999 DRSN FEW130 DRSN SFC MOD FL50/FL60 MOD SFC/FL20 -33 -38 66 1021 ...
15 16008MPS 9999 DRSN SCT120 DRSN SFC MOD FL50/FL60 MOD SFC/FL20 -33 -38 66 1019 ...
18 14003MPS 9999 FEW120 SFC MOD FL50/FL60 -34 -38 68 1018 ...
21 VRB02MPS 1000 BR SKC BR SFC -35 -39 70 1017 ...
27.01.2021
00 VRB02MPS 1000 BR SKC BR SFC -36 -40 70 1018 ...
03 33004MPS 1000 BR SKC BR SFC -37 -41 69 1019 ...
06 32005MPS 1000 BR SKC BR SFC -38 -42 68 1020 ...
09 32004MPS 1000 BR SKC BR SFC -39 -43 67 1023 ...
12 33004MPS 1000 BR SKC BR SFC -41 -45 68 1025 ...
15 33004MPS 1000 BR SKC BR SFC -43 -47 65 1026 ...


Широта 66.07002°, долгота 76.51957°, высота 65 м абс.
Средняя высота рельефа местности 65 м абс.
Прогнозы обновляются четыре раза в сутки: в 02, 08, 14, 20 ч всемирного времени.


Выбрать прогноз по другой модели Новый Уренгой
Онлайн-сводка гроз по Новый Уренгой (для РФ и ближнего зарубежья)
Карта фактических гроз в окрестностях Новый Уренгой
Динамические прогностические карты (ventusky.com)
Прогностическая карта высоты нижней границы облаков по Новый Уренгой (windy.com)
Выбрать другой город

Прогноз предназначен для личного научно-познавательного использования частными лицами
и не предназначен для принятия важных решений и выполнения реальных полётов воздушных судов

При копировании или ином использовании любых материалов данного сайта ссылка на © meteocenter.asia обязательна.

1.09/1.5